createdAt,value
2018-04-26T00:02:08.592Z,9.80
2018-04-26T00:04:35.600Z,9.80
2018-04-26T00:07:01.854Z,9.80
2018-04-26T00:09:28.097Z,9.80
2018-04-26T00:11:54.334Z,9.80
2018-04-26T00:14:20.560Z,9.80
2018-04-26T00:16:47.636Z,9.80
2018-04-26T00:19:14.611Z,9.80
2018-04-26T00:21:40.853Z,9.80
2018-04-26T00:24:07.840Z,9.80
2018-04-26T00:26:34.144Z,9.80
2018-04-26T00:29:00.373Z,9.90
2018-04-26T00:31:26.609Z,9.90
2018-04-26T00:33:52.837Z,9.80
2018-04-26T00:36:19.777Z,9.70
2018-04-26T00:38:46.151Z,9.80
2018-04-26T00:41:13.148Z,9.70
2018-04-26T00:43:39.393Z,9.70
2018-04-26T00:46:05.606Z,9.80
2018-04-26T00:48:32.563Z,9.70
2018-04-26T00:50:58.780Z,9.70
2018-04-26T00:53:25.039Z,9.70
2018-04-26T00:55:51.274Z,9.70
2018-04-26T00:58:17.556Z,9.70
2018-04-26T01:00:43.817Z,9.70
2018-04-26T01:03:11.125Z,9.50
2018-04-26T01:05:38.104Z,9.50
2018-04-26T01:08:04.448Z,9.50
2018-04-26T01:10:31.514Z,9.50
2018-04-26T01:12:58.490Z,9.50
2018-04-26T01:15:24.721Z,9.50
2018-04-26T01:17:52.169Z,9.40
2018-04-26T01:20:18.465Z,9.40
2018-04-26T01:22:45.448Z,9.30
2018-04-26T01:25:11.684Z,9.30
2018-04-26T01:27:38.711Z,9.20
2018-04-26T01:30:04.991Z,9.20
2018-04-26T01:32:31.251Z,9.20
2018-04-26T01:34:58.329Z,9.10
2018-04-26T01:37:31.355Z,9.10
2018-04-26T01:39:57.591Z,9.10
2018-04-26T01:42:23.831Z,9.00
2018-04-26T01:44:50.905Z,8.90
2018-04-26T01:47:17.853Z,8.80
2018-04-26T01:49:44.838Z,8.70
2018-04-26T01:52:11.836Z,8.70
2018-04-26T01:54:38.102Z,8.70
2018-04-26T01:57:04.332Z,8.60
2018-04-26T01:59:30.578Z,8.60
2018-04-26T02:01:56.834Z,8.50
2018-04-26T02:04:23.064Z,8.40
2018-04-26T02:06:50.139Z,8.30
2018-04-26T02:09:17.127Z,8.30
2018-04-26T02:11:43.370Z,8.30
2018-04-26T02:14:09.937Z,8.30
2018-04-26T02:16:36.192Z,8.30
2018-04-26T02:19:02.456Z,8.30
2018-04-26T02:21:29.500Z,8.20
2018-04-26T02:23:55.748Z,8.20
2018-04-26T02:26:21.983Z,8.20
2018-04-26T02:28:48.277Z,8.20
2018-04-26T02:31:14.874Z,8.20
2018-04-26T02:33:41.886Z,8.20
2018-04-26T02:36:08.129Z,8.10
2018-04-26T02:38:35.428Z,8.20
2018-04-26T02:41:01.977Z,8.10
2018-04-26T02:43:28.250Z,8.20
2018-04-26T02:45:56.349Z,8.30
2018-04-26T02:48:23.698Z,8.30
2018-04-26T02:50:50.833Z,8.30
2018-04-26T02:53:17.916Z,8.30
2018-04-26T02:55:45.248Z,8.30
2018-04-26T02:58:11.770Z,8.30
2018-04-26T03:00:38.044Z,8.40
2018-04-26T03:03:04.343Z,8.40
2018-04-26T03:05:31.259Z,8.40
2018-04-26T03:07:57.813Z,8.40
2018-04-26T03:10:24.257Z,8.40
2018-04-26T03:12:50.872Z,8.50
2018-04-26T03:15:17.479Z,8.50
2018-04-26T03:17:43.715Z,8.60
2018-04-26T03:20:10.056Z,8.60
2018-04-26T03:22:36.519Z,8.60
2018-04-26T03:25:02.814Z,8.70
2018-04-26T03:27:29.481Z,8.70
2018-04-26T03:29:56.965Z,8.60
2018-04-26T03:32:23.232Z,8.60
2018-04-26T03:34:49.630Z,8.60
2018-04-26T03:37:16.143Z,8.60
2018-04-26T03:39:42.418Z,8.60
2018-04-26T03:42:09.498Z,8.50
2018-04-26T03:44:36.806Z,8.40
2018-04-26T03:47:03.088Z,8.40
2018-04-26T03:49:30.197Z,8.40
2018-04-26T03:51:57.553Z,8.30
2018-04-26T03:54:24.937Z,8.30
2018-04-26T03:56:51.212Z,8.20
2018-04-26T03:59:18.422Z,8.10
2018-04-26T04:01:50.803Z,8.10
2018-04-26T04:04:23.356Z,8.10
2018-04-26T04:06:49.663Z,8.10
2018-04-26T04:09:16.693Z,8.10
2018-04-26T04:11:44.020Z,8.10
2018-04-26T04:14:11.390Z,8.30
2018-04-26T04:16:37.672Z,8.30
2018-04-26T04:19:05.799Z,8.40
2018-04-26T04:21:32.365Z,8.40
2018-04-26T04:23:58.607Z,8.50
2018-04-26T04:26:25.173Z,8.50
2018-04-26T04:28:51.413Z,8.50
2018-04-26T04:31:17.768Z,8.50
2018-04-26T04:33:44.042Z,8.50
2018-04-26T04:36:10.356Z,8.50
2018-04-26T04:38:36.646Z,8.50
2018-04-26T04:41:02.918Z,8.60
2018-04-26T04:43:29.960Z,8.60
2018-04-26T04:45:56.532Z,8.60
2018-04-26T04:48:22.945Z,8.60
2018-04-26T04:50:49.208Z,8.70
2018-04-26T04:53:15.422Z,8.70
2018-04-26T04:55:42.611Z,8.80
2018-04-26T04:58:10.067Z,8.80
2018-04-26T05:00:36.688Z,8.80
2018-04-26T05:03:02.987Z,8.80
2018-04-26T05:05:30.152Z,8.90
2018-04-26T05:07:56.643Z,8.90
2018-04-26T05:10:23.115Z,8.90
2018-04-26T05:12:49.381Z,9.00
2018-04-26T05:15:15.703Z,9.00
2018-04-26T05:17:42.903Z,9.00
2018-04-26T05:20:09.227Z,8.90
2018-04-26T05:22:35.511Z,8.70
2018-04-26T05:25:01.744Z,8.60
2018-04-26T05:27:28.033Z,8.50
2018-04-26T05:29:54.389Z,8.50
2018-04-26T05:32:20.679Z,8.40
2018-04-26T05:34:47.936Z,8.40
2018-04-26T05:37:14.252Z,8.30
2018-04-26T05:39:41.284Z,8.40
2018-04-26T05:42:08.650Z,8.40
2018-04-26T05:44:35.263Z,8.40
2018-04-26T05:47:01.822Z,8.50
2018-04-26T05:49:28.096Z,8.70
2018-04-26T05:51:54.488Z,8.90
2018-04-26T05:54:20.944Z,9.00
2018-04-26T05:56:47.300Z,9.10
2018-04-26T05:59:14.289Z,9.40
2018-04-26T06:01:40.775Z,9.40
2018-04-26T06:04:07.244Z,9.80
2018-04-26T06:06:33.638Z,10.00
2018-04-26T06:09:01.056Z,10.00
2018-04-26T06:11:28.086Z,9.90
2018-04-26T06:13:54.362Z,9.80
2018-04-26T06:16:20.697Z,9.80
2018-04-26T06:18:46.979Z,9.70
2018-04-26T06:21:13.202Z,9.50
2018-04-26T06:23:39.479Z,9.50
2018-04-26T06:26:06.899Z,9.40
2018-04-26T06:28:33.514Z,9.40
2018-04-26T06:31:01.996Z,9.40
2018-04-26T06:33:28.216Z,9.40
2018-04-26T06:35:55.551Z,9.40
2018-04-26T06:38:21.910Z,9.40
2018-04-26T06:40:48.225Z,9.70
2018-04-26T06:43:14.505Z,10.80
2018-04-26T06:45:40.875Z,12.20
2018-04-26T06:48:07.144Z,13.50
2018-04-26T06:50:34.146Z,15.70
2018-04-26T06:53:00.455Z,15.70
2018-04-26T06:55:27.819Z,17.20
2018-04-26T06:57:54.857Z,17.30
2018-04-26T07:00:21.179Z,17.20
2018-04-26T07:02:48.511Z,17.90
2018-04-26T07:05:14.777Z,17.90
2018-04-26T07:07:41.082Z,17.60
2018-04-26T07:10:07.391Z,17.00
2018-04-26T07:12:33.668Z,16.20
2018-04-26T07:15:01.027Z,16.40
2018-04-26T07:17:27.738Z,17.20
2018-04-26T07:19:53.955Z,17.40
2018-04-26T07:22:20.578Z,18.90
2018-04-26T07:24:46.815Z,21.30
2018-04-26T07:27:13.096Z,23.20
2018-04-26T07:29:40.445Z,25.40
2018-04-26T07:32:07.022Z,25.30
2018-04-26T07:34:33.295Z,26.70
2018-04-26T07:37:00.299Z,27.60
2018-04-26T07:39:26.665Z,27.50
2018-04-26T07:41:52.908Z,28.30
2018-04-26T07:44:19.544Z,28.60
2018-04-26T07:46:46.161Z,28.90
2018-04-26T07:49:12.478Z,29.30
2018-04-26T07:51:38.758Z,28.80
2018-04-26T07:54:05.042Z,28.40
2018-04-26T07:56:32.060Z,28.80
2018-04-26T07:58:58.334Z,28.80
2018-04-26T08:01:24.662Z,28.60
2018-04-26T08:03:50.911Z,29.10
2018-04-26T08:06:17.256Z,29.30
2018-04-26T08:08:43.521Z,28.40
2018-04-26T08:11:09.997Z,26.50
2018-04-26T08:13:36.500Z,25.60
2018-04-26T08:16:03.465Z,24.50
2018-04-26T08:18:29.896Z,23.80
2018-04-26T08:20:56.956Z,23.00
2018-04-26T08:23:23.387Z,21.80
2018-04-26T08:25:50.269Z,20.70
2018-04-26T08:28:17.002Z,19.20
2018-04-26T08:30:43.472Z,17.80
2018-04-26T08:33:10.117Z,16.40
2018-04-26T08:35:37.726Z,14.90
2018-04-26T08:38:04.334Z,14.90
2018-04-26T08:40:30.843Z,14.50
2018-04-26T08:42:57.320Z,14.10
2018-04-26T08:45:24.545Z,13.50
2018-04-26T08:47:51.208Z,13.40
2018-04-26T08:50:18.568Z,13.00
2018-04-26T08:52:46.052Z,13.00
2018-04-26T08:55:12.637Z,12.90
2018-04-26T08:57:39.494Z,12.70
2018-04-26T09:00:06.006Z,12.60
2018-04-26T09:02:33.284Z,12.90
2018-04-26T09:04:59.879Z,12.90
2018-04-26T09:07:26.505Z,13.30
2018-04-26T09:09:52.937Z,13.50
2018-04-26T09:12:19.696Z,13.60
2018-04-26T09:14:46.220Z,13.40
2018-04-26T09:17:12.816Z,13.00
2018-04-26T09:19:40.254Z,12.60
2018-04-26T09:22:07.708Z,11.80
2018-04-26T09:24:34.516Z,11.70
2018-04-26T09:27:01.354Z,11.20
2018-04-26T09:29:28.880Z,10.00
2018-04-26T09:31:55.715Z,10.00
2018-04-26T09:34:22.368Z,9.60
2018-04-26T09:36:48.925Z,9.40
2018-04-26T09:39:15.589Z,9.20
2018-04-26T09:41:42.454Z,9.00
2018-04-26T09:44:09.344Z,9.00
2018-04-26T09:46:35.934Z,8.80
2018-04-26T09:49:03.414Z,8.80
2018-04-26T09:51:29.903Z,8.70
2018-04-26T09:53:56.360Z,8.80
2018-04-26T09:56:23.584Z,9.60
2018-04-26T09:58:50.055Z,9.50
2018-04-26T10:01:19.671Z,10.00
2018-04-26T10:03:46.285Z,10.30
2018-04-26T10:06:30.595Z,10.50
2018-04-26T10:08:57.236Z,10.70
2018-04-26T10:11:23.778Z,10.90
2018-04-26T10:13:50.394Z,11.10
2018-04-26T10:16:17.770Z,11.40
2018-04-26T10:18:44.349Z,11.40
2018-04-26T10:21:11.304Z,11.60
2018-04-26T10:23:37.779Z,11.80
2018-04-26T10:26:04.316Z,12.00
2018-04-26T10:28:31.195Z,12.20
2018-04-26T10:30:58.722Z,12.60
2018-04-26T10:33:26.504Z,12.60
2018-04-26T10:35:54.185Z,12.90
2018-04-26T10:38:20.666Z,12.90
2018-04-26T10:40:47.140Z,12.80
2018-04-26T10:43:13.832Z,12.70
2018-04-26T10:45:41.710Z,12.40
2018-04-26T10:48:08.171Z,11.90
2018-04-26T10:50:34.706Z,11.40
2018-04-26T10:53:01.462Z,10.90
2018-04-26T10:55:28.071Z,10.50
2018-04-26T10:57:54.608Z,10.40
2018-04-26T11:00:21.409Z,10.40
2018-04-26T11:02:48.663Z,11.00
2018-04-26T11:05:15.446Z,11.00
2018-04-26T11:07:42.271Z,11.30
2018-04-26T11:10:09.072Z,11.50
2018-04-26T11:12:35.596Z,11.70
2018-04-26T11:15:02.410Z,11.90
2018-04-26T11:17:30.616Z,12.20
2018-04-26T11:19:57.866Z,12.30
2018-04-26T11:22:24.399Z,12.30
2018-04-26T11:24:51.767Z,12.60
2018-04-26T11:27:18.421Z,12.50
2018-04-26T11:29:45.931Z,12.70
2018-04-26T11:32:13.201Z,12.70
2018-04-26T11:34:39.929Z,12.70
2018-04-26T11:37:07.175Z,12.60
2018-04-26T11:39:33.610Z,12.50
2018-04-26T11:42:01.049Z,12.50
2018-04-26T11:44:27.897Z,12.50
2018-04-26T11:46:54.574Z,12.60
2018-04-26T11:49:21.066Z,12.70
2018-04-26T11:51:48.280Z,12.40
2018-04-26T11:54:15.661Z,12.00
2018-04-26T11:56:44.337Z,11.90
2018-04-26T11:59:11.807Z,12.20
2018-04-26T12:01:39.359Z,12.40
2018-04-26T12:04:05.888Z,12.40
2018-04-26T12:06:33.456Z,12.60
2018-04-26T12:09:00.101Z,12.70
2018-04-26T12:11:26.807Z,12.90
2018-04-26T12:13:53.397Z,12.90
2018-04-26T12:16:20.179Z,12.80
2018-04-26T12:18:46.620Z,12.70
2018-04-26T12:21:13.262Z,12.70
2018-04-26T12:23:39.831Z,12.80
2018-04-26T12:26:06.267Z,12.70
2018-04-26T12:28:32.991Z,12.80
2018-04-26T12:31:00.527Z,12.90
2018-04-26T12:33:27.891Z,12.90
2018-04-26T12:35:54.540Z,12.80
2018-04-26T12:38:21.020Z,12.80
2018-04-26T12:40:48.515Z,13.00
2018-04-26T12:43:14.956Z,12.90
2018-04-26T12:45:41.525Z,13.00
2018-04-26T12:48:09.217Z,13.10
2018-04-26T12:50:35.780Z,13.10
2018-04-26T12:53:03.176Z,13.40
2018-04-26T12:55:29.978Z,13.40
2018-04-26T12:57:56.642Z,13.60
2018-04-26T13:00:23.147Z,13.70
2018-04-26T13:02:50.021Z,13.70
2018-04-26T13:05:16.520Z,13.70
2018-04-26T13:07:43.316Z,13.70
2018-04-26T13:10:09.720Z,13.70
2018-04-26T13:12:37.260Z,13.50
2018-04-26T13:15:03.876Z,13.40
2018-04-26T13:17:30.429Z,13.50
2018-04-26T13:19:56.906Z,13.50
2018-04-26T13:22:23.447Z,13.50
2018-04-26T13:24:50.454Z,13.70
2018-04-26T13:27:16.875Z,13.90
2018-04-26T13:29:43.422Z,14.00
2018-04-26T13:32:09.992Z,14.20
2018-04-26T13:34:37.331Z,14.30
2018-04-26T13:37:03.924Z,14.40
2018-04-26T13:39:30.585Z,14.40
2018-04-26T13:41:57.287Z,14.40
2018-04-26T13:44:24.520Z,14.20
2018-04-26T13:46:51.459Z,14.20
2018-04-26T13:49:17.944Z,14.10
2018-04-26T13:51:44.484Z,14.20
2018-04-26T13:54:11.062Z,14.40
2018-04-26T13:56:38.311Z,14.80
2018-04-26T13:59:05.033Z,14.80
2018-04-26T14:01:31.765Z,14.70
2018-04-26T14:03:58.316Z,14.60
2018-04-26T14:06:25.524Z,14.40
2018-04-26T14:08:52.154Z,14.40
2018-04-26T14:11:19.272Z,14.20
2018-04-26T14:13:45.777Z,14.00
2018-04-26T14:16:12.349Z,13.70
2018-04-26T14:18:38.867Z,13.40
2018-04-26T14:21:06.513Z,12.80
2018-04-26T14:23:33.328Z,12.80
2018-04-26T14:26:01.155Z,12.30
2018-04-26T14:28:27.752Z,12.30
2018-04-26T14:30:54.616Z,12.20
2018-04-26T14:33:23.259Z,12.30
2018-04-26T14:35:50.221Z,12.30
2018-04-26T14:38:17.091Z,12.50
2018-04-26T14:40:43.675Z,12.70
2018-04-26T14:43:10.335Z,12.70
2018-04-26T14:45:37.112Z,12.70
2018-04-26T14:48:03.626Z,12.70
2018-04-26T14:50:31.179Z,12.60
2018-04-26T14:52:57.772Z,12.60
2018-04-26T14:55:24.592Z,12.40
2018-04-26T14:57:51.992Z,12.30
2018-04-26T15:00:18.692Z,12.20
2018-04-26T15:02:45.904Z,12.20
2018-04-26T15:05:13.134Z,12.50
2018-04-26T15:07:39.608Z,12.50
2018-04-26T15:10:06.096Z,12.70
2018-04-26T15:12:32.601Z,12.80
2018-04-26T15:15:00.442Z,12.80
2018-04-26T15:17:28.677Z,12.70
2018-04-26T15:19:56.234Z,12.70
2018-04-26T15:22:23.446Z,12.70
2018-04-26T15:24:50.691Z,12.90
2018-04-26T15:27:17.881Z,13.00
2018-04-26T15:29:44.344Z,13.00
2018-04-26T15:32:10.896Z,13.10
2018-04-26T15:34:37.941Z,13.10
2018-04-26T15:37:04.461Z,13.10
2018-04-26T15:39:31.088Z,13.10
2018-04-26T15:41:58.023Z,13.00
2018-04-26T15:44:24.642Z,12.80
2018-04-26T15:46:51.114Z,12.60
2018-04-26T15:49:17.925Z,12.30
2018-04-26T15:51:44.862Z,12.00
2018-04-26T15:54:23.930Z,11.80
2018-04-26T15:57:03.787Z,12.00
2018-04-26T15:59:42.551Z,12.00
2018-04-26T16:02:36.191Z,12.30
2018-04-26T16:05:21.028Z,12.60
2018-04-26T16:08:06.012Z,12.80
2018-04-26T16:11:05.920Z,12.90
2018-04-26T16:13:50.879Z,12.80
2018-04-26T16:16:35.843Z,12.60
2018-04-26T16:19:28.464Z,12.50
2018-04-26T16:22:14.473Z,12.10
2018-04-26T16:24:54.433Z,12.10
2018-04-26T16:27:39.376Z,12.00
2018-04-26T16:30:18.902Z,11.90
2018-04-26T16:33:04.538Z,11.90
2018-04-26T16:35:43.671Z,11.90
2018-04-26T16:38:22.298Z,11.90
2018-04-26T16:40:49.756Z,11.90
2018-04-26T16:43:19.568Z,11.70
2018-04-26T16:45:46.535Z,11.70
2018-04-26T16:48:13.212Z,11.60
2018-04-26T16:50:40.336Z,11.50
2018-04-26T16:53:07.880Z,11.40
2018-04-26T16:55:35.976Z,11.40
2018-04-26T16:58:04.989Z,11.30
2018-04-26T17:00:32.800Z,11.20
2018-04-26T17:02:59.890Z,11.10
2018-04-26T17:05:27.175Z,11.00
2018-04-26T17:07:57.872Z,10.90
2018-04-26T17:10:25.829Z,10.80
2018-04-26T17:12:52.372Z,10.70
2018-04-26T17:15:19.402Z,10.50
2018-04-26T17:17:46.202Z,10.40
2018-04-26T17:20:12.707Z,10.40
2018-04-26T17:22:39.587Z,10.30
2018-04-26T17:25:07.089Z,10.20
2018-04-26T17:27:36.782Z,10.10
2018-04-26T17:30:03.678Z,10.00
2018-04-26T17:32:32.064Z,9.90
2018-04-26T17:34:59.220Z,9.90
2018-04-26T17:37:26.472Z,9.90
2018-04-26T17:39:53.211Z,9.90
2018-04-26T17:42:20.362Z,9.80
2018-04-26T17:44:47.279Z,9.80
2018-04-26T17:47:13.856Z,9.80
2018-04-26T17:49:40.411Z,9.80
2018-04-26T17:52:06.967Z,9.80
2018-04-26T17:54:33.623Z,9.90
2018-04-26T17:57:00.286Z,9.90
2018-04-26T17:59:27.566Z,9.90
2018-04-26T18:01:54.019Z,9.90
2018-04-26T18:04:21.498Z,9.90
2018-04-26T18:06:48.921Z,9.90
2018-04-26T18:09:16.151Z,9.80
2018-04-26T18:11:42.814Z,9.80
2018-04-26T18:14:09.283Z,9.70
2018-04-26T18:16:35.825Z,9.60
2018-04-26T18:19:03.340Z,9.60
2018-04-26T18:21:29.770Z,9.40
2018-04-26T18:23:56.525Z,9.30
2018-04-26T18:26:23.186Z,9.10
2018-04-26T18:28:50.665Z,8.90
2018-04-26T18:31:18.410Z,8.70
2018-04-26T18:33:45.899Z,8.70
2018-04-26T18:36:13.307Z,8.60
2018-04-26T18:38:40.171Z,8.50
2018-04-26T18:41:07.002Z,8.40
2018-04-26T18:43:33.613Z,8.30
2018-04-26T18:46:01.073Z,8.30
2018-04-26T18:48:28.083Z,8.20
2018-04-26T18:50:57.264Z,8.20
2018-04-26T18:53:24.480Z,8.10
2018-04-26T18:55:52.217Z,8.00
2018-04-26T18:58:18.717Z,8.00
2018-04-26T19:00:45.439Z,8.00
2018-04-26T19:03:13.532Z,7.90
2018-04-26T19:05:40.847Z,7.90
2018-04-26T19:08:07.655Z,7.80
2018-04-26T19:10:37.054Z,7.80
2018-04-26T19:13:03.994Z,7.70
2018-04-26T19:15:30.470Z,7.70
2018-04-26T19:17:58.101Z,7.70
2018-04-26T19:20:24.781Z,7.70
2018-04-26T19:22:51.277Z,7.60
2018-04-26T19:25:17.835Z,7.60
2018-04-26T19:27:45.698Z,7.50
2018-04-26T19:30:15.904Z,7.50
2018-04-26T19:32:42.667Z,7.40
2018-04-26T19:35:09.635Z,7.30
2018-04-26T19:37:36.067Z,7.30
2018-04-26T19:40:03.439Z,7.20
2018-04-26T19:42:30.740Z,7.20
2018-04-26T19:44:57.756Z,7.20
2018-04-26T19:47:24.548Z,7.10
2018-04-26T19:49:52.476Z,7.10
2018-04-26T19:52:19.023Z,7.00
2018-04-26T19:54:45.490Z,7.00
2018-04-26T19:57:12.958Z,6.90
2018-04-26T19:59:39.771Z,6.90
2018-04-26T20:02:06.378Z,6.90
2018-04-26T20:04:32.946Z,6.80
2018-04-26T20:07:00.212Z,6.70
2018-04-26T20:09:26.736Z,6.70
2018-04-26T20:11:53.535Z,6.70
2018-04-26T20:14:20.452Z,6.60
2018-04-26T20:16:46.957Z,6.60
2018-04-26T20:19:14.322Z,6.50
2018-04-26T20:21:40.842Z,6.50
2018-04-26T20:24:08.106Z,6.40
2018-04-26T20:26:34.947Z,6.40
2018-04-26T20:29:01.739Z,6.40
2018-04-26T20:31:28.200Z,6.30
2018-04-26T20:33:54.944Z,6.30
2018-04-26T20:36:21.573Z,6.20
2018-04-26T20:38:48.676Z,6.20
2018-04-26T20:41:15.203Z,6.10
2018-04-26T20:43:42.337Z,6.00
2018-04-26T20:46:08.790Z,6.00
2018-04-26T20:48:40.305Z,6.00
2018-04-26T20:51:06.768Z,5.90
2018-04-26T20:53:33.311Z,5.90
2018-04-26T20:56:00.522Z,5.80
2018-04-26T20:58:26.952Z,5.80
2018-04-26T21:00:53.499Z,5.80
2018-04-26T21:03:20.772Z,5.80
2018-04-26T21:05:48.032Z,5.70
2018-04-26T21:08:14.489Z,5.70
2018-04-26T21:10:41.674Z,5.70
2018-04-26T21:13:08.868Z,5.60
2018-04-26T21:15:35.407Z,5.60
2018-04-26T21:18:02.683Z,5.50
2018-04-26T21:20:29.869Z,5.50
2018-04-26T21:22:56.231Z,5.50
2018-04-26T21:25:22.653Z,5.50
2018-04-26T21:27:49.068Z,5.40
2018-04-26T21:30:15.513Z,5.40
2018-04-26T21:32:41.936Z,5.40
2018-04-26T21:35:08.374Z,5.30
2018-04-26T21:37:35.552Z,5.30
2018-04-26T21:40:02.713Z,5.30
2018-04-26T21:42:29.126Z,5.20
2018-04-26T21:44:55.599Z,5.20
2018-04-26T21:47:22.034Z,5.20
2018-04-26T21:49:54.547Z,5.20
2018-04-26T21:52:27.153Z,5.20
2018-04-26T21:54:59.556Z,5.20
2018-04-26T21:57:32.679Z,5.10
2018-04-26T22:00:05.096Z,5.10
2018-04-26T22:02:31.466Z,5.10
2018-04-26T22:05:14.596Z,5.10
2018-04-26T22:07:41.063Z,5.00
2018-04-26T22:10:07.531Z,5.00
2018-04-26T22:12:33.999Z,5.00
2018-04-26T22:15:01.207Z,4.90
2018-04-26T22:17:27.661Z,4.90
2018-04-26T22:19:54.277Z,5.00
2018-04-26T22:22:20.764Z,4.90
2018-04-26T22:24:47.829Z,4.90
2018-04-26T22:27:15.015Z,4.90
2018-04-26T22:29:41.562Z,4.80
2018-04-26T22:32:08.837Z,4.90
2018-04-26T22:34:35.297Z,4.80
2018-04-26T22:37:01.849Z,4.80
2018-04-26T22:39:29.129Z,4.80
2018-04-26T22:41:55.684Z,4.80
2018-04-26T22:44:22.853Z,4.80
2018-04-26T22:46:50.020Z,4.80
2018-04-26T22:49:17.155Z,4.70
2018-04-26T22:51:43.594Z,4.70
2018-04-26T22:54:10.011Z,4.70
2018-04-26T22:56:37.651Z,4.70
2018-04-26T23:00:44.073Z,4.60
2018-04-26T23:03:11.245Z,4.50
2018-04-26T23:05:38.418Z,4.50
2018-04-26T23:08:05.522Z,4.40
2018-04-26T23:10:31.951Z,4.40
2018-04-26T23:12:58.354Z,4.40
2018-04-26T23:15:24.786Z,4.40
2018-04-26T23:17:51.241Z,4.40
2018-04-26T23:20:17.767Z,4.40
2018-04-26T23:22:44.950Z,4.40
2018-04-26T23:25:11.376Z,4.30
2018-04-26T23:27:38.568Z,4.30
2018-04-26T23:30:05.006Z,4.30
2018-04-26T23:32:31.412Z,4.30
2018-04-26T23:34:57.841Z,4.30
2018-04-26T23:37:24.989Z,4.30
2018-04-26T23:39:52.152Z,4.40
2018-04-26T23:42:18.739Z,4.30
2018-04-26T23:44:45.887Z,4.40
2018-04-26T23:47:12.279Z,4.40
2018-04-26T23:49:38.664Z,4.40
2018-04-26T23:52:05.079Z,4.40
2018-04-26T23:54:31.525Z,4.40
2018-04-26T23:56:58.680Z,4.30
2018-04-26T23:59:25.127Z,4.30
